Weather at Norman Y. Mineta San Jose International Airport

Public forecast

Using degrees Fahrenheit for public forecast. Weather courtesy of forecast.io.

Current aviation weather report (METAR) for Norman Y. Mineta San Jose International Airport

Retrieved 2021/04/21 07:53 UTC (15 minutes ago):

KSJC 210753Z AUTO 17007KT 10SM CLR 11/06 A2986 RMK AO2 SLP111 T01110061 401830083

Aviation forecast (TAF) for Norman Y. Mineta San Jose International Airport

Retrieved 2021/04/21 06:36 UTC (2 hours ago):

TAF KSJC 210533Z 2106/2206 VRB05KT P6SM SCT015 SCT030 FM210800 16006KT P6SM BKN015 OVC025 FM211900 29010KT P6SM SCT030 BKN200 FM220200 33007KT P6SM FEW015 SCT025 BKN200 FM220500 VRB05KT P6SM FEW015 SCT025